Aérodrome :







RETROUVEZ-NOUS SUR...

 
LOGIN :

S'inscrire | Disclaimer

   EN    FR    IT 

 









Légende :    VFR   VFR Marginal   IFR   IFR Intensif   IFR Très Intensif
Visi : 
Plafond : 
>= 8 km
>= 3000ft
5 à 8 km
1000 à 3000 ft
1500m à 5 km
500 à 1000 ft
800 à 1500m
200 à 500 ft
< 800m
< 200 ft
Symboles :   Orages  Brouillard  Fortes neiges  Fortes précipitations  Vent > 20 kt






- Altitude de l'aérodrome : 129 ft
- Code IATA : YVP


CYVP - Kuujjuak

DERNIER METAR :
  • 172100Z 25006KT 200V270 10SM IC DRSN BKN031 OVC090 M24/M28 A3027 RMK SC6AS2 SLP257

METARs EXPIRÉS :
  • 172000Z 24009KT 15SM IC DRSN BKN032 BKN090 BKN240 M25/M29 A3027 RMK SC5AC1CI1 SLP257
  • 171900Z CCA 24008KT 10SM IC DRSN FEW012 FEW022 SCT031 BKN090 BKN240 M25/M30 A3026 RMK SF1SC1SC2AC2CI1 SLP255

TAF TAF CYVP
Valide du 17 à 18h jusqu'au 18 à 06h UTC


171744Z 1718/1806 25010G20KT P6SM BKN030 BKN100
TEMPO 1718/1806 5SM -SN RMK NXT FCST BY 180000Z



MET'MAP, la Météo Aéronautique d'un coup d'oeil ! - Copyright ORBIFLY Décembre 2007 - Disclaimer

ORBIFLY MET'MAP TEAM :

Programmation & Développement : Alexandra Zaïnal
Sur une idée originale de : Baudouin d'Aumeries
Assistance à la programmation : Marc-Olivier Méhu
Soutien technique & logistique : Manuel Goepfert

Contact : metmap@orbifly.com




SOURCES & CREDITS :

   NOAA